sensor_id;sensor_type;location;lat;lon;timestamp;temperature;humidity
70928;SHT31;58587;53.034;18.576;2022-07-10T09:53:48;18.46;65.17
70928;SHT31;58587;53.034;18.576;2022-07-10T09:56:14;18.44;63.23
70928;SHT31;58587;53.034;18.576;2022-07-10T09:58:39;18.38;65.30
70928;SHT31;58587;53.034;18.576;2022-07-10T10:01:06;18.10;66.92
70928;SHT31;58587;53.034;18.576;2022-07-10T10:03:37;17.83;69.38
70928;SHT31;58587;53.034;18.576;2022-07-10T10:06:13;17.69;70.74
70928;SHT31;58587;53.034;18.576;2022-07-10T10:11:49;17.39;72.80
70928;SHT31;58587;53.034;18.576;2022-07-10T10:14:18;17.22;73.63
70928;SHT31;58587;53.034;18.576;2022-07-10T10:16:44;17.08;73.56
70928;SHT31;58587;53.034;18.576;2022-07-10T10:19:11;17.18;74.21
70928;SHT31;58587;53.034;18.576;2022-07-10T10:21:57;17.30;73.30
70928;SHT31;58587;53.034;18.576;2022-07-10T10:24:23;17.46;72.28
70928;SHT31;58587;53.034;18.576;2022-07-10T10:26:50;17.49;72.91
70928;SHT31;58587;53.034;18.576;2022-07-10T10:29:16;17.49;71.19
70928;SHT31;58587;53.034;18.576;2022-07-10T10:31:42;17.72;70.99
70928;SHT31;58587;53.034;18.576;2022-07-10T10:34:07;17.96;71.08
70928;SHT31;58587;53.034;18.576;2022-07-10T10:39:11;18.16;67.97
70928;SHT31;58587;53.034;18.576;2022-07-10T10:41:52;18.54;68.26
70928;SHT31;58587;53.034;18.576;2022-07-10T10:47:00;18.88;65.58
70928;SHT31;58587;53.034;18.576;2022-07-10T10:49:51;19.11;63.88
70928;SHT31;58587;53.034;18.576;2022-07-10T10:52:18;19.46;64.81
70928;SHT31;58587;53.034;18.576;2022-07-10T10:55:00;19.38;62.97
70928;SHT31;58587;53.034;18.576;2022-07-10T10:57:48;19.04;61.64
70928;SHT31;58587;53.034;18.576;2022-07-10T11:00:30;18.98;62.12
70928;SHT31;58587;53.034;18.576;2022-07-10T11:03:22;18.43;62.15
70928;SHT31;58587;53.034;18.576;2022-07-10T11:05:50;18.60;62.18
70928;SHT31;58587;53.034;18.576;2022-07-10T11:08:35;18.48;61.59
70928;SHT31;58587;53.034;18.576;2022-07-10T11:11:01;18.61;62.34
70928;SHT31;58587;53.034;18.576;2022-07-10T11:13:27;18.71;62.62
70928;SHT31;58587;53.034;18.576;2022-07-10T11:15:54;18.97;62.73
70928;SHT31;58587;53.034;18.576;2022-07-10T11:18:20;18.90;60.83
70928;SHT31;58587;53.034;18.576;2022-07-10T11:20:54;19.23;61.63
70928;SHT31;58587;53.034;18.576;2022-07-10T11:29:09;19.52;59.38
70928;SHT31;58587;53.034;18.576;2022-07-10T11:31:35;19.65;60.28
70928;SHT31;58587;53.034;18.576;2022-07-10T11:34:06;19.87;59.66
70928;SHT31;58587;53.034;18.576;2022-07-10T11:36:31;20.10;58.27
70928;SHT31;58587;53.034;18.576;2022-07-10T11:39:08;20.44;59.11
70928;SHT31;58587;53.034;18.576;2022-07-10T11:41:41;20.88;58.25
70928;SHT31;58587;53.034;18.576;2022-07-10T11:44:07;20.79;55.18
70928;SHT31;58587;53.034;18.576;2022-07-10T11:46:38;20.65;55.62
70928;SHT31;58587;53.034;18.576;2022-07-10T11:49:05;20.91;56.20
70928;SHT31;58587;53.034;18.576;2022-07-10T11:51:33;21.18;54.91
70928;SHT31;58587;53.034;18.576;2022-07-10T11:54:02;21.54;55.63
70928;SHT31;58587;53.034;18.576;2022-07-10T11:56:30;21.20;54.75
70928;SHT31;58587;53.034;18.576;2022-07-10T11:59:02;21.18;52.93
70928;SHT31;58587;53.034;18.576;2022-07-10T12:01:30;21.26;53.07
70928;SHT31;58587;53.034;18.576;2022-07-10T12:04:04;21.28;53.38
70928;SHT31;58587;53.034;18.576;2022-07-10T12:06:32;20.94;54.03
70928;SHT31;58587;53.034;18.576;2022-07-10T12:09:06;21.03;54.25
70928;SHT31;58587;53.034;18.576;2022-07-10T12:11:32;20.91;54.85
70928;SHT31;58587;53.034;18.576;2022-07-10T12:16:35;21.49;54.65
70928;SHT31;58587;53.034;18.576;2022-07-10T12:19:01;21.52;53.81
70928;SHT31;58587;53.034;18.576;2022-07-10T12:21:26;21.30;53.99
70928;SHT31;58587;53.034;18.576;2022-07-10T12:23:52;21.05;53.89
70928;SHT31;58587;53.034;18.576;2022-07-10T12:26:18;20.95;53.02
70928;SHT31;58587;53.034;18.576;2022-07-10T12:28:56;20.82;52.88
70928;SHT31;58587;53.034;18.576;2022-07-10T12:31:23;20.67;52.14
70928;SHT31;58587;53.034;18.576;2022-07-10T12:33:54;20.41;53.15
70928;SHT31;58587;53.034;18.576;2022-07-10T12:36:22;20.28;54.52
70928;SHT31;58587;53.034;18.576;2022-07-10T12:38:56;20.26;56.42
70928;SHT31;58587;53.034;18.576;2022-07-10T12:41:23;20.31;56.66
70928;SHT31;58587;53.034;18.576;2022-07-10T12:43:51;20.54;54.87
70928;SHT31;58587;53.034;18.576;2022-07-10T12:46:22;21.40;52.60
70928;SHT31;58587;53.034;18.576;2022-07-10T12:49:07;22.10;53.25
70928;SHT31;58587;53.034;18.576;2022-07-10T12:51:53;21.91;52.53
70928;SHT31;58587;53.034;18.576;2022-07-10T12:54:34;22.22;49.07
70928;SHT31;58587;53.034;18.576;2022-07-10T12:57:00;21.98;50.63
70928;SHT31;58587;53.034;18.576;2022-07-10T12:59:27;21.89;50.96
70928;SHT31;58587;53.034;18.576;2022-07-10T13:01:52;21.76;52.11
70928;SHT31;58587;53.034;18.576;2022-07-10T13:04:23;21.70;50.46
70928;SHT31;58587;53.034;18.576;2022-07-10T13:06:50;21.66;50.34
70928;SHT31;58587;53.034;18.576;2022-07-10T13:09:20;21.22;48.38
70928;SHT31;58587;53.034;18.576;2022-07-10T13:11:46;20.92;48.13
70928;SHT31;58587;53.034;18.576;2022-07-10T13:14:11;20.95;49.01
70928;SHT31;58587;53.034;18.576;2022-07-10T13:16:37;20.82;48.12
70928;SHT31;58587;53.034;18.576;2022-07-10T13:19:02;20.68;48.72
70928;SHT31;58587;53.034;18.576;2022-07-10T13:21:27;20.45;49.13
70928;SHT31;58587;53.034;18.576;2022-07-10T13:23:53;20.37;49.28
70928;SHT31;58587;53.034;18.576;2022-07-10T13:26:18;21.09;49.01
70928;SHT31;58587;53.034;18.576;2022-07-10T13:28:43;21.06;48.87
70928;SHT31;58587;53.034;18.576;2022-07-10T13:31:09;21.53;47.96
70928;SHT31;58587;53.034;18.576;2022-07-10T13:33:34;21.33;49.81
70928;SHT31;58587;53.034;18.576;2022-07-10T13:36:02;21.16;50.88
70928;SHT31;58587;53.034;18.576;2022-07-10T13:38:28;21.46;51.63
70928;SHT31;58587;53.034;18.576;2022-07-10T13:40:53;21.43;51.30
70928;SHT31;58587;53.034;18.576;2022-07-10T13:43:18;21.36;50.66
70928;SHT31;58587;53.034;18.576;2022-07-10T13:45:46;22.24;47.95
70928;SHT31;58587;53.034;18.576;2022-07-10T13:48:13;22.98;44.52
70928;SHT31;58587;53.034;18.576;2022-07-10T13:50:39;22.51;46.79
70928;SHT31;58587;53.034;18.576;2022-07-10T13:53:05;22.78;47.17
70928;SHT31;58587;53.034;18.576;2022-07-10T13:55:30;22.84;45.99
70928;SHT31;58587;53.034;18.576;2022-07-10T13:57:58;22.95;45.92
70928;SHT31;58587;53.034;18.576;2022-07-10T14:00:23;23.45;45.72
70928;SHT31;58587;53.034;18.576;2022-07-10T14:02:49;23.75;44.90
70928;SHT31;58587;53.034;18.576;2022-07-10T14:05:14;23.87;42.27
70928;SHT31;58587;53.034;18.576;2022-07-10T14:07:40;24.52;42.52
70928;SHT31;58587;53.034;18.576;2022-07-10T14:10:05;25.33;39.03
70928;SHT31;58587;53.034;18.576;2022-07-10T14:12:31;26.06;39.14
70928;SHT31;58587;53.034;18.576;2022-07-10T14:14:57;25.41;38.04
70928;SHT31;58587;53.034;18.576;2022-07-10T14:17:23;25.91;39.82
70928;SHT31;58587;53.034;18.576;2022-07-10T14:19:49;25.53;40.98
70928;SHT31;58587;53.034;18.576;2022-07-10T14:22:15;25.22;42.83
70928;SHT31;58587;53.034;18.576;2022-07-10T14:24:41;25.40;42.27
70928;SHT31;58587;53.034;18.576;2022-07-10T14:27:07;25.78;42.12
70928;SHT31;58587;53.034;18.576;2022-07-10T14:29:32;26.57;41.58
70928;SHT31;58587;53.034;18.576;2022-07-10T14:31:57;26.12;39.67
70928;SHT31;58587;53.034;18.576;2022-07-10T14:34:23;24.72;42.50
70928;SHT31;58587;53.034;18.576;2022-07-10T14:36:52;23.81;44.66
70928;SHT31;58587;53.034;18.576;2022-07-10T14:39:18;23.16;46.53
70928;SHT31;58587;53.034;18.576;2022-07-10T14:41:43;22.54;48.86
70928;SHT31;58587;53.034;18.576;2022-07-10T14:44:08;22.14;49.07
70928;SHT31;58587;53.034;18.576;2022-07-10T14:46:34;21.67;51.47
70928;SHT31;58587;53.034;18.576;2022-07-10T14:48:59;21.18;51.65
70928;SHT31;58587;53.034;18.576;2022-07-10T14:51:25;21.02;53.72
70928;SHT31;58587;53.034;18.576;2022-07-10T14:53:50;20.72;52.82
70928;SHT31;58587;53.034;18.576;2022-07-10T14:56:16;20.54;53.48
70928;SHT31;58587;53.034;18.576;2022-07-10T14:58:42;20.33;54.96
70928;SHT31;58587;53.034;18.576;2022-07-10T15:01:07;20.12;57.44
70928;SHT31;58587;53.034;18.576;2022-07-10T15:03:33;19.77;61.01
70928;SHT31;58587;53.034;18.576;2022-07-10T15:05:58;19.61;62.66
70928;SHT31;58587;53.034;18.576;2022-07-10T15:08:24;19.72;63.08
70928;SHT31;58587;53.034;18.576;2022-07-10T15:10:49;20.27;61.60
70928;SHT31;58587;53.034;18.576;2022-07-10T15:13:15;21.33;58.44
70928;SHT31;58587;53.034;18.576;2022-07-10T15:15:40;21.20;60.56
70928;SHT31;58587;53.034;18.576;2022-07-10T15:18:06;20.87;61.24
70928;SHT31;58587;53.034;18.576;2022-07-10T15:20:32;21.12;61.76
70928;SHT31;58587;53.034;18.576;2022-07-10T15:22:57;20.85;62.37
70928;SHT31;58587;53.034;18.576;2022-07-10T15:25:23;20.57;60.62
70928;SHT31;58587;53.034;18.576;2022-07-10T15:27:50;20.21;61.16
70928;SHT31;58587;53.034;18.576;2022-07-10T15:30:15;19.87;62.40
70928;SHT31;58587;53.034;18.576;2022-07-10T15:32:40;19.18;63.47
70928;SHT31;58587;53.034;18.576;2022-07-10T15:35:07;18.85;67.28
70928;SHT31;58587;53.034;18.576;2022-07-10T15:37:32;18.85;67.42
70928;SHT31;58587;53.034;18.576;2022-07-10T15:39:58;18.87;69.01
70928;SHT31;58587;53.034;18.576;2022-07-10T15:42:23;18.43;67.23
70928;SHT31;58587;53.034;18.576;2022-07-10T15:44:49;18.48;69.39
70928;SHT31;58587;53.034;18.576;2022-07-10T15:47:15;18.40;70.29
70928;SHT31;58587;53.034;18.576;2022-07-10T15:49:40;18.29;72.32
70928;SHT31;58587;53.034;18.576;2022-07-10T15:52:06;18.26;74.22
70928;SHT31;58587;53.034;18.576;2022-07-10T15:54:31;18.03;75.59
70928;SHT31;58587;53.034;18.576;2022-07-10T15:56:57;17.99;75.04
70928;SHT31;58587;53.034;18.576;2022-07-10T15:59:22;17.95;75.74
70928;SHT31;58587;53.034;18.576;2022-07-10T16:01:55;17.83;72.38
70928;SHT31;58587;53.034;18.576;2022-07-10T16:04:21;17.75;74.03
70928;SHT31;58587;53.034;18.576;2022-07-10T16:06:47;17.59;74.38
70928;SHT31;58587;53.034;18.576;2022-07-10T16:09:14;17.45;75.19
70928;SHT31;58587;53.034;18.576;2022-07-10T16:11:39;17.34;75.92
70928;SHT31;58587;53.034;18.576;2022-07-10T16:14:06;17.20;75.43
70928;SHT31;58587;53.034;18.576;2022-07-10T16:16:31;17.03;75.31
70928;SHT31;58587;53.034;18.576;2022-07-10T16:18:56;16.90;74.70
70928;SHT31;58587;53.034;18.576;2022-07-10T16:21:22;16.85;75.47
70928;SHT31;58587;53.034;18.576;2022-07-10T16:23:48;16.71;76.16
70928;SHT31;58587;53.034;18.576;2022-07-10T16:26:13;16.63;75.75
70928;SHT31;58587;53.034;18.576;2022-07-10T16:28:39;16.55;74.57
70928;SHT31;58587;53.034;18.576;2022-07-10T16:31:05;16.46;74.81
70928;SHT31;58587;53.034;18.576;2022-07-10T16:33:30;16.30;75.16
70928;SHT31;58587;53.034;18.576;2022-07-10T16:35:56;16.16;76.23
70928;SHT31;58587;53.034;18.576;2022-07-10T16:38:22;15.98;75.47
70928;SHT31;58587;53.034;18.576;2022-07-10T16:40:47;15.78;75.37
70928;SHT31;58587;53.034;18.576;2022-07-10T16:43:13;15.79;76.68
70928;SHT31;58587;53.034;18.576;2022-07-10T16:45:43;15.78;78.53
70928;SHT31;58587;53.034;18.576;2022-07-10T16:48:09;15.88;77.84
70928;SHT31;58587;53.034;18.576;2022-07-10T16:50:35;15.96;78.51
70928;SHT31;58587;53.034;18.576;2022-07-10T16:53:01;16.01;77.67
70928;SHT31;58587;53.034;18.576;2022-07-10T16:55:27;16.05;77.24
70928;SHT31;58587;53.034;18.576;2022-07-10T16:57:53;15.91;78.28
70928;SHT31;58587;53.034;18.576;2022-07-10T17:00:18;15.99;78.75
70928;SHT31;58587;53.034;18.576;2022-07-10T17:02:44;15.86;75.70
70928;SHT31;58587;53.034;18.576;2022-07-10T17:05:09;15.88;78.48
70928;SHT31;58587;53.034;18.576;2022-07-10T17:07:36;15.77;77.04
70928;SHT31;58587;53.034;18.576;2022-07-10T17:10:01;15.79;79.61
70928;SHT31;58587;53.034;18.576;2022-07-10T17:12:27;15.71;80.12
70928;SHT31;58587;53.034;18.576;2022-07-10T17:14:52;15.53;80.32
70928;SHT31;58587;53.034;18.576;2022-07-10T17:17:18;15.62;79.77
70928;SHT31;58587;53.034;18.576;2022-07-10T17:19:43;15.55;80.12
70928;SHT31;58587;53.034;18.576;2022-07-10T17:22:09;15.55;79.44
70928;SHT31;58587;53.034;18.576;2022-07-10T17:24:37;15.48;80.65
70928;SHT31;58587;53.034;18.576;2022-07-10T17:27:03;15.38;81.46
70928;SHT31;58587;53.034;18.576;2022-07-10T17:29:29;15.34;81.91
70928;SHT31;58587;53.034;18.576;2022-07-10T17:31:54;15.31;80.45
70928;SHT31;58587;53.034;18.576;2022-07-10T17:34:20;15.34;80.18
70928;SHT31;58587;53.034;18.576;2022-07-10T17:36:45;15.41;81.53
70928;SHT31;58587;53.034;18.576;2022-07-10T17:39:11;15.23;81.25
70928;SHT31;58587;53.034;18.576;2022-07-10T17:41:37;15.28;81.50
70928;SHT31;58587;53.034;18.576;2022-07-10T17:44:04;15.38;80.57
70928;SHT31;58587;53.034;18.576;2022-07-10T17:46:29;15.45;80.77
70928;SHT31;58587;53.034;18.576;2022-07-10T17:48:56;15.47;79.81
70928;SHT31;58587;53.034;18.576;2022-07-10T17:51:22;15.45;81.25
70928;SHT31;58587;53.034;18.576;2022-07-10T17:53:49;15.48;81.17
70928;SHT31;58587;53.034;18.576;2022-07-10T17:56:15;15.51;80.63
70928;SHT31;58587;53.034;18.576;2022-07-10T17:58:41;15.57;81.34
70928;SHT31;58587;53.034;18.576;2022-07-10T18:01:07;15.53;79.69
70928;SHT31;58587;53.034;18.576;2022-07-10T18:03:32;15.53;80.92
70928;SHT31;58587;53.034;18.576;2022-07-10T18:05:58;15.47;80.69
70928;SHT31;58587;53.034;18.576;2022-07-10T18:08:23;15.45;82.03
70928;SHT31;58587;53.034;18.576;2022-07-10T18:10:51;15.41;82.62
70928;SHT31;58587;53.034;18.576;2022-07-10T18:13:16;15.35;82.44
70928;SHT31;58587;53.034;18.576;2022-07-10T18:15:41;15.19;82.01
70928;SHT31;58587;53.034;18.576;2022-07-10T18:18:07;15.23;82.61
70928;SHT31;58587;53.034;18.576;2022-07-10T18:20:32;15.20;83.09
70928;SHT31;58587;53.034;18.576;2022-07-10T18:22:59;15.23;82.50
70928;SHT31;58587;53.034;18.576;2022-07-10T18:25:26;15.20;82.81
70928;SHT31;58587;53.034;18.576;2022-07-10T18:27:51;15.11;83.27
70928;SHT31;58587;53.034;18.576;2022-07-10T18:30:16;15.16;82.96
70928;SHT31;58587;53.034;18.576;2022-07-10T18:32:42;15.11;83.00
70928;SHT31;58587;53.034;18.576;2022-07-10T18:35:25;15.07;83.87
70928;SHT31;58587;53.034;18.576;2022-07-10T18:37:51;15.00;83.84
70928;SHT31;58587;53.034;18.576;2022-07-10T18:40:16;14.97;83.72
70928;SHT31;58587;53.034;18.576;2022-07-10T18:42:42;15.02;84.16
70928;SHT31;58587;53.034;18.576;2022-07-10T18:45:07;14.97;84.08
70928;SHT31;58587;53.034;18.576;2022-07-10T18:47:33;15.02;84.26
70928;SHT31;58587;53.034;18.576;2022-07-10T18:49:59;14.97;84.09
70928;SHT31;58587;53.034;18.576;2022-07-10T18:52:24;14.96;83.44
70928;SHT31;58587;53.034;18.576;2022-07-10T18:54:50;14.93;83.89
70928;SHT31;58587;53.034;18.576;2022-07-10T18:57:15;14.89;83.44
70928;SHT31;58587;53.034;18.576;2022-07-10T18:59:40;14.87;84.48
70928;SHT31;58587;53.034;18.576;2022-07-10T19:02:10;14.82;85.24
70928;SHT31;58587;53.034;18.576;2022-07-10T19:04:36;14.76;85.33
70928;SHT31;58587;53.034;18.576;2022-07-10T19:07:01;14.77;85.49
70928;SHT31;58587;53.034;18.576;2022-07-10T19:09:27;14.76;86.10
70928;SHT31;58587;53.034;18.576;2022-07-10T19:11:53;14.79;85.93
70928;SHT31;58587;53.034;18.576;2022-07-10T19:14:19;14.75;85.59
70928;SHT31;58587;53.034;18.576;2022-07-10T19:16:45;14.72;84.85
70928;SHT31;58587;53.034;18.576;2022-07-10T19:19:10;14.77;85.92
70928;SHT31;58587;53.034;18.576;2022-07-10T19:21:36;14.77;86.44
70928;SHT31;58587;53.034;18.576;2022-07-10T19:24:01;14.76;86.41
70928;SHT31;58587;53.034;18.576;2022-07-10T19:26:26;14.79;86.58
70928;SHT31;58587;53.034;18.576;2022-07-10T19:28:52;14.76;86.60
70928;SHT31;58587;53.034;18.576;2022-07-10T19:31:17;14.66;86.21
70928;SHT31;58587;53.034;18.576;2022-07-10T19:33:44;14.68;86.67
70928;SHT31;58587;53.034;18.576;2022-07-10T19:36:12;14.65;87.43
70928;SHT31;58587;53.034;18.576;2022-07-10T19:38:37;14.66;85.49
70928;SHT31;58587;53.034;18.576;2022-07-10T19:41:03;14.60;85.91
70928;SHT31;58587;53.034;18.576;2022-07-10T19:43:32;14.62;86.01
70928;SHT31;58587;53.034;18.576;2022-07-10T19:45:58;14.62;86.38
70928;SHT31;58587;53.034;18.576;2022-07-10T19:48:26;14.59;86.03
70928;SHT31;58587;53.034;18.576;2022-07-10T19:50:51;14.68;87.06
70928;SHT31;58587;53.034;18.576;2022-07-10T19:53:16;14.59;86.81
70928;SHT31;58587;53.034;18.576;2022-07-10T19:55:42;14.62;87.49
70928;SHT31;58587;53.034;18.576;2022-07-10T19:58:07;14.59;87.57
70928;SHT31;58587;53.034;18.576;2022-07-10T20:00:32;14.51;87.14
70928;SHT31;58587;53.034;18.576;2022-07-10T20:02:58;14.52;87.42
70928;SHT31;58587;53.034;18.576;2022-07-10T20:05:25;14.45;87.52
70928;SHT31;58587;53.034;18.576;2022-07-10T20:07:50;14.42;87.07
70928;SHT31;58587;53.034;18.576;2022-07-10T20:10:15;14.39;86.70
70928;SHT31;58587;53.034;18.576;2022-07-10T20:12:41;14.36;86.47
70928;SHT31;58587;53.034;18.576;2022-07-10T20:15:07;14.32;86.63
70928;SHT31;58587;53.034;18.576;2022-07-10T20:17:32;14.29;86.70
70928;SHT31;58587;53.034;18.576;2022-07-10T20:19:57;14.22;86.82
70928;SHT31;58587;53.034;18.576;2022-07-10T20:22:23;14.21;86.82
70928;SHT31;58587;53.034;18.576;2022-07-10T20:24:48;14.11;86.38
70928;SHT31;58587;53.034;18.576;2022-07-10T20:27:14;14.01;86.81
70928;SHT31;58587;53.034;18.576;2022-07-10T20:29:41;14.01;86.65
70928;SHT31;58587;53.034;18.576;2022-07-10T20:32:06;14.01;86.58
70928;SHT31;58587;53.034;18.576;2022-07-10T20:34:32;13.95;87.35
70928;SHT31;58587;53.034;18.576;2022-07-10T20:36:57;13.91;87.25
70928;SHT31;58587;53.034;18.576;2022-07-10T20:39:41;13.87;86.69
70928;SHT31;58587;53.034;18.576;2022-07-10T20:42:07;13.79;87.09
70928;SHT31;58587;53.034;18.576;2022-07-10T20:44:34;13.75;87.66
70928;SHT31;58587;53.034;18.576;2022-07-10T20:46:59;13.70;86.75
70928;SHT31;58587;53.034;18.576;2022-07-10T20:49:25;13.70;87.87
70928;SHT31;58587;53.034;18.576;2022-07-10T20:51:50;13.63;88.05
70928;SHT31;58587;53.034;18.576;2022-07-10T20:54:15;13.60;88.01
70928;SHT31;58587;53.034;18.576;2022-07-10T20:56:41;13.58;88.30
70928;SHT31;58587;53.034;18.576;2022-07-10T20:59:06;13.56;88.12
70928;SHT31;58587;53.034;18.576;2022-07-10T21:01:32;13.53;87.98
70928;SHT31;58587;53.034;18.576;2022-07-10T21:03:57;13.50;87.77
70928;SHT31;58587;53.034;18.576;2022-07-10T21:06:23;13.47;88.63
70928;SHT31;58587;53.034;18.576;2022-07-10T21:08:49;13.43;87.93
70928;SHT31;58587;53.034;18.576;2022-07-10T21:11:14;13.43;87.51
70928;SHT31;58587;53.034;18.576;2022-07-10T21:13:40;13.40;87.75
70928;SHT31;58587;53.034;18.576;2022-07-10T21:16:05;13.39;88.61
70928;SHT31;58587;53.034;18.576;2022-07-10T21:18:30;13.43;88.29
70928;SHT31;58587;53.034;18.576;2022-07-10T21:20:56;13.44;88.59
70928;SHT31;58587;53.034;18.576;2022-07-10T21:23:21;13.43;88.29
70928;SHT31;58587;53.034;18.576;2022-07-10T21:25:47;13.40;88.77
70928;SHT31;58587;53.034;18.576;2022-07-10T21:28:12;13.42;88.81
70928;SHT31;58587;53.034;18.576;2022-07-10T21:30:37;13.37;88.44
70928;SHT31;58587;53.034;18.576;2022-07-10T21:33:05;13.37;88.60
70928;SHT31;58587;53.034;18.576;2022-07-10T21:35:31;13.36;88.88
70928;SHT31;58587;53.034;18.576;2022-07-10T21:37:57;13.37;89.17
70928;SHT31;58587;53.034;18.576;2022-07-10T21:40:25;13.37;89.28
70928;SHT31;58587;53.034;18.576;2022-07-10T21:42:52;13.36;89.39
70928;SHT31;58587;53.034;18.576;2022-07-10T21:45:17;13.33;89.18
70928;SHT31;58587;53.034;18.576;2022-07-10T21:47:43;13.32;89.00
70928;SHT31;58587;53.034;18.576;2022-07-10T21:50:08;13.26;87.92
70928;SHT31;58587;53.034;18.576;2022-07-10T21:52:33;13.09;89.24
70928;SHT31;58587;53.034;18.576;2022-07-10T21:54:59;13.09;88.90
70928;SHT31;58587;53.034;18.576;2022-07-10T21:57:24;13.17;88.59
70928;SHT31;58587;53.034;18.576;2022-07-10T21:59:49;13.23;89.40
70928;SHT31;58587;53.034;18.576;2022-07-10T22:02:15;13.22;89.21
70928;SHT31;58587;53.034;18.576;2022-07-10T22:04:40;13.17;89.18
70928;SHT31;58587;53.034;18.576;2022-07-10T22:07:06;13.09;89.26
70928;SHT31;58587;53.034;18.576;2022-07-10T22:09:31;13.16;90.00
70928;SHT31;58587;53.034;18.576;2022-07-10T22:11:57;13.20;89.50
70928;SHT31;58587;53.034;18.576;2022-07-10T22:14:22;13.26;89.72
70928;SHT31;58587;53.034;18.576;2022-07-10T22:16:47;13.26;89.89
70928;SHT31;58587;53.034;18.576;2022-07-10T22:19:17;13.20;89.31
70928;SHT31;58587;53.034;18.576;2022-07-10T22:21:42;13.16;88.81
70928;SHT31;58587;53.034;18.576;2022-07-10T22:24:08;13.19;89.40
70928;SHT31;58587;53.034;18.576;2022-07-10T22:26:34;13.13;88.80
70928;SHT31;58587;53.034;18.576;2022-07-10T22:29:00;13.16;88.43
70928;SHT31;58587;53.034;18.576;2022-07-10T22:31:25;13.07;88.68
70928;SHT31;58587;53.034;18.576;2022-07-10T22:33:56;13.02;89.06
70928;SHT31;58587;53.034;18.576;2022-07-10T22:36:23;13.06;89.22
70928;SHT31;58587;53.034;18.576;2022-07-10T22:38:49;13.05;88.66
70928;SHT31;58587;53.034;18.576;2022-07-10T22:41:14;13.03;89.60
70928;SHT31;58587;53.034;18.576;2022-07-10T22:43:41;12.99;88.73
70928;SHT31;58587;53.034;18.576;2022-07-10T22:46:07;13.02;89.21
70928;SHT31;58587;53.034;18.576;2022-07-10T22:48:33;12.99;89.01
70928;SHT31;58587;53.034;18.576;2022-07-10T22:50:58;13.00;89.40
70928;SHT31;58587;53.034;18.576;2022-07-10T22:53:24;12.99;89.39
70928;SHT31;58587;53.034;18.576;2022-07-10T22:55:49;13.00;89.80
70928;SHT31;58587;53.034;18.576;2022-07-10T22:58:15;13.05;89.99
70928;SHT31;58587;53.034;18.576;2022-07-10T23:00:41;13.03;89.42
70928;SHT31;58587;53.034;18.576;2022-07-10T23:03:08;12.93;89.80
70928;SHT31;58587;53.034;18.576;2022-07-10T23:05:34;12.93;89.25
70928;SHT31;58587;53.034;18.576;2022-07-10T23:07:59;13.00;90.08
70928;SHT31;58587;53.034;18.576;2022-07-10T23:10:25;13.02;89.94
70928;SHT31;58587;53.034;18.576;2022-07-10T23:12:50;13.03;89.87
70928;SHT31;58587;53.034;18.576;2022-07-10T23:15:16;13.03;89.39
70928;SHT31;58587;53.034;18.576;2022-07-10T23:17:43;13.00;89.30
70928;SHT31;58587;53.034;18.576;2022-07-10T23:20:08;13.07;89.36
70928;SHT31;58587;53.034;18.576;2022-07-10T23:22:34;13.05;89.72
70928;SHT31;58587;53.034;18.576;2022-07-10T23:25:00;13.09;89.89
70928;SHT31;58587;53.034;18.576;2022-07-10T23:27:27;13.09;89.89
70928;SHT31;58587;53.034;18.576;2022-07-10T23:29:53;13.07;89.64
70928;SHT31;58587;53.034;18.576;2022-07-10T23:32:19;13.06;89.65
70928;SHT31;58587;53.034;18.576;2022-07-10T23:34:46;13.00;90.36
70928;SHT31;58587;53.034;18.576;2022-07-10T23:37:12;13.13;90.25
70928;SHT31;58587;53.034;18.576;2022-07-10T23:39:38;13.13;89.85
70928;SHT31;58587;53.034;18.576;2022-07-10T23:42:04;13.16;89.82
70928;SHT31;58587;53.034;18.576;2022-07-10T23:44:30;13.17;90.29
70928;SHT31;58587;53.034;18.576;2022-07-10T23:46:55;13.15;90.06
70928;SHT31;58587;53.034;18.576;2022-07-10T23:49:20;13.16;89.59
70928;SHT31;58587;53.034;18.576;2022-07-10T23:52:04;13.16;89.92
70928;SHT31;58587;53.034;18.576;2022-07-10T23:54:30;13.15;89.95
70928;SHT31;58587;53.034;18.576;2022-07-10T23:56:55;13.19;90.03
70928;SHT31;58587;53.034;18.576;2022-07-10T23:59:20;13.20;89.56
